Time;durP1;ratioP1;P1;durP2;ratioP2;P2;SDS_P1;SDS_P2;PMS_P1;PMS_P2;Temp;Humidity;BMP_temperature;BMP_pressure;BME280_temperature;BME280_humidity;BME280_pressure;Samples;Min_cycle;Max_cycle;Signal;HPM_P1;HPM_P2
2022/06/18 00:01:19;;;;;;;6.97;2.50;;;;;;;25.21;43.27;99084.78;4955200;29;20436;-50
2022/06/18 00:03:44;;;;;;;4.75;2.60;;;;;;;25.20;43.48;99085.88;4954094;29;20027;-50
2022/06/18 00:06:10;;;;;;;4.53;2.30;;;;;;;25.20;43.71;99083.97;4954049;29;20030;-50
2022/06/18 00:08:37;;;;;;;7.35;3.10;;;;;;;25.18;43.72;99088.06;4955796;28;20429;-50
2022/06/18 00:13:50;;;;;;;5.27;2.90;;;;;;;24.89;44.54;99068.22;4955488;29;20038;-48
2022/06/18 00:16:19;;;;;;;5.78;3.47;;;;;;;24.81;44.67;99076.91;4953797;29;20335;-48
2022/06/18 00:18:45;;;;;;;7.03;2.53;;;;;;;24.92;44.34;99070.31;4953747;29;20035;-48
2022/06/18 00:21:17;;;;;;;4.57;3.13;;;;;;;25.01;44.17;99075.06;4954694;28;20576;-47
2022/06/18 00:23:44;;;;;;;5.88;2.72;;;;;;;25.02;44.49;99063.25;4955052;28;20075;-47
2022/06/18 00:26:10;;;;;;;6.05;2.50;;;;;;;25.07;44.56;99069.38;4953602;29;20030;-49
2022/06/18 00:28:36;;;;;;;4.90;2.90;;;;;;;25.02;44.80;99068.63;4954880;28;20027;-50
2022/06/18 00:31:02;;;;;;;4.63;3.28;;;;;;;24.89;44.83;99062.03;4953543;29;20394;-50
2022/06/18 00:33:28;;;;;;;5.93;2.72;;;;;;;24.85;45.03;99063.69;4953368;28;20038;-50
2022/06/18 00:35:59;;;;;;;7.70;3.53;;;;;;;24.86;44.92;99068.00;4953453;29;20023;-50
2022/06/18 00:38:33;;;;;;;4.93;2.45;;;;;;;24.88;44.84;99068.50;4954783;28;20039;-49
2022/06/18 00:41:00;;;;;;;5.72;2.58;;;;;;;24.62;45.34;99063.41;4954666;28;20038;-48
2022/06/18 00:43:39;;;;;;;5.07;2.13;;;;;;;24.64;45.90;99055.06;4954805;28;20110;-48
2022/06/18 00:46:27;;;;;;;10.00;2.10;;;;;;;24.65;45.59;99059.34;4953286;29;20497;-47
2022/06/18 00:49:04;;;;;;;8.48;3.42;;;;;;;24.71;45.79;99060.91;4954576;28;20039;-48
2022/06/18 00:51:47;;;;;;;296.63;261.80;;;;;;;24.62;45.45;99062.59;4954527;28;20055;-48
2022/06/18 00:54:44;;;;;;;489.08;326.83;;;;;;;24.49;45.96;99067.53;4953179;29;20516;-47
2022/06/18 00:57:31;;;;;;;141.80;80.85;;;;;;;24.26;46.44;99052.97;4953374;29;20046;-48
2022/06/18 01:00:12;;;;;;;29.55;17.38;;;;;;;24.04;47.44;99040.00;4954287;28;20050;-50
2022/06/18 01:02:42;;;;;;;827.13;513.85;;;;;;;24.03;47.75;99046.47;4952993;29;20031;-50
2022/06/18 01:05:24;;;;;;;240.70;131.07;;;;;;;24.22;47.25;99046.56;4954538;28;20020;-49
2022/06/18 01:07:58;;;;;;;44.63;23.05;;;;;;;24.21;46.85;99046.84;4954227;28;20437;-50
2022/06/18 01:10:33;;;;;;;16.48;9.43;;;;;;;24.30;46.84;99045.16;4952977;29;20023;-50
2022/06/18 01:13:02;;;;;;;14.15;8.77;;;;;;;24.37;46.57;99050.19;4954258;28;20035;-50
2022/06/18 01:15:27;;;;;;;25.08;19.05;;;;;;;24.33;46.50;99042.72;4954121;28;20501;-49
2022/06/18 01:17:56;;;;;;;146.10;80.70;;;;;;;24.36;46.66;99032.50;4954088;28;20023;-49
2022/06/18 01:20:24;;;;;;;218.68;101.10;;;;;;;24.29;46.63;99039.00;4953759;28;20152;-49
2022/06/18 01:23:13;;;;;;;434.90;272.27;;;;;;;24.26;47.19;99031.50;4952734;29;20027;-49
2022/06/18 01:25:39;;;;;;;270.15;223.07;;;;;;;24.32;47.06;99034.94;4952706;29;20045;-50
2022/06/18 01:28:05;;;;;;;179.85;160.23;;;;;;;24.32;46.86;99018.84;4952657;29;20035;-49
2022/06/18 01:30:36;;;;;;;92.70;81.53;;;;;;;24.33;46.94;99020.47;4953849;29;20031;-49
2022/06/18 01:33:06;;;;;;;125.60;104.18;;;;;;;24.25;46.65;99026.44;4952633;29;20039;-49
2022/06/18 01:35:35;;;;;;;32.30;24.48;;;;;;;24.05;46.95;99019.38;4953870;28;20031;-49
2022/06/18 01:38:01;;;;;;;70.53;57.78;;;;;;;23.81;47.38;99019.28;4953813;28;20082;-50
2022/06/18 01:40:36;;;;;;;42.47;34.50;;;;;;;23.64;47.95;99023.13;4953712;28;20027;-49
2022/06/18 01:43:05;;;;;;;26.23;20.65;;;;;;;23.40;48.29;99014.13;4952434;29;20054;-50
2022/06/18 01:45:35;;;;;;;14.80;10.73;;;;;;;23.13;49.39;99026.84;4952395;29;20094;-49
2022/06/18 01:48:27;;;;;;;11.15;7.35;;;;;;;22.94;50.12;99015.94;4952480;29;20023;-49
2022/06/18 01:51:19;;;;;;;12.43;8.60;;;;;;;22.80;51.59;99012.25;4953308;29;20523;-49
2022/06/18 01:53:56;;;;;;;11.52;7.60;;;;;;;22.85;51.34;99012.22;4944652;29;20126;-50
2022/06/18 01:56:28;;;;;;;15.80;11.95;;;;;;;22.93;51.30;99011.66;4953856;28;20031;-50
2022/06/18 01:59:13;;;;;;;18.27;11.88;;;;;;;22.93;51.24;99005.50;4952426;29;20094;-50
2022/06/18 02:01:42;;;;;;;10.73;7.07;;;;;;;23.06;50.21;99004.94;4953582;28;20035;-50
2022/06/18 02:04:08;;;;;;;10.48;6.57;;;;;;;22.99;50.28;99008.97;4953603;28;20032;-50
2022/06/18 02:06:37;;;;;;;16.73;9.82;;;;;;;22.80;51.90;99004.22;4953569;28;20029;-50
2022/06/18 02:09:09;;;;;;;16.98;14.98;;;;;;;22.66;52.81;99020.03;4952331;29;20023;-50
2022/06/18 02:11:35;;;;;;;7.45;5.35;;;;;;;22.50;52.37;99013.91;4952249;29;20046;-50
2022/06/18 02:14:07;;;;;;;12.95;8.32;;;;;;;22.46;53.31;99012.06;4952297;29;20034;-49
2022/06/18 02:16:39;;;;;;;22.38;17.27;;;;;;;22.45;52.98;99007.78;4952208;29;20087;-50
2022/06/18 02:19:07;;;;;;;11.27;6.72;;;;;;;22.42;52.83;99017.16;4953529;28;20038;-50
2022/06/18 02:21:45;;;;;;;24.75;17.10;;;;;;;22.36;53.80;99020.09;4953159;28;20075;-49
2022/06/18 02:24:11;;;;;;;14.73;6.82;;;;;;;22.37;54.18;99019.81;4952166;29;20075;-50
2022/06/18 02:26:40;;;;;;;8.27;6.10;;;;;;;22.40;54.00;99015.81;4952078;29;20058;-49
2022/06/18 02:29:16;;;;;;;10.02;6.45;;;;;;;22.39;53.95;99020.34;4953431;28;20493;-50
2022/06/18 02:31:45;;;;;;;9.60;8.00;;;;;;;22.46;53.72;99014.75;4953400;28;20035;-50
2022/06/18 02:34:17;;;;;;;6.93;5.72;;;;;;;22.48;53.03;99021.41;4953270;28;20078;-49
2022/06/18 02:36:43;;;;;;;5.22;4.72;;;;;;;22.38;53.34;99024.09;4953599;28;20397;-49
2022/06/18 02:39:21;;;;;;;5.10;3.58;;;;;;;22.32;53.46;99030.53;4953316;28;20031;-49
2022/06/18 02:41:47;;;;;;;5.85;3.90;;;;;;;22.29;54.39;99028.38;4953177;28;20030;-50
2022/06/18 02:44:14;;;;;;;6.60;3.90;;;;;;;22.12;54.40;99031.31;4952109;29;20023;-49
2022/06/18 02:46:40;;;;;;;7.68;4.45;;;;;;;21.91;54.88;99031.31;4952045;29;20027;-49
2022/06/18 02:49:09;;;;;;;8.55;4.30;;;;;;;21.82;55.97;99018.75;4951916;29;20058;-50
2022/06/18 02:51:36;;;;;;;5.72;4.18;;;;;;;21.90;54.82;99019.00;4953136;28;20512;-49
2022/06/18 02:54:03;;;;;;;4.80;3.75;;;;;;;21.91;55.97;99025.13;4951931;29;20489;-49
2022/06/18 02:56:29;;;;;;;322.98;107.32;;;;;;;22.13;56.23;99020.34;4953377;28;20047;-50
2022/06/18 02:58:55;;;;;;;56.78;15.18;;;;;;;22.31;54.46;99012.88;4955265;29;20085;-50
2022/06/18 03:01:24;;;;;;;21.05;7.93;;;;;;;22.40;54.50;99015.81;4956471;28;20572;-50
2022/06/18 03:03:56;;;;;;;14.10;4.40;;;;;;;22.40;53.40;99016.63;4956458;28;20027;-50
2022/06/18 03:06:24;;;;;;;10.55;4.72;;;;;;;22.16;53.95;99016.34;4955215;29;20401;-50
2022/06/18 03:08:51;;;;;;;18.25;6.50;;;;;;;22.18;53.71;99016.88;4955123;29;20027;-50
2022/06/18 03:14:05;;;;;;;7.80;3.63;;;;;;;22.09;53.01;99029.16;4956404;29;20030;-49
2022/06/18 03:16:32;;;;;;;4.78;2.83;;;;;;;22.16;52.63;99023.56;4971099;28;20046;-50
2022/06/18 03:19:00;;;;;;;4.97;3.10;;;;;;;22.22;52.43;99023.28;4956249;28;20023;-49
2022/06/18 03:21:37;;;;;;;51.67;29.15;;;;;;;22.22;52.27;99028.63;4954564;29;20051;-50
2022/06/18 03:24:04;;;;;;;67.70;34.70;;;;;;;22.04;52.35;99026.50;4954882;29;20433;-49
2022/06/18 03:26:30;;;;;;;22.20;10.95;;;;;;;21.85;52.60;99023.53;4954765;29;20027;-50
2022/06/18 03:28:56;;;;;;;11.30;4.63;;;;;;;21.69;53.54;99017.38;4954687;29;20047;-50
2022/06/18 03:31:22;;;;;;;8.25;2.92;;;;;;;21.65;53.60;99021.63;4954694;29;20035;-49
2022/06/18 03:33:51;;;;;;;6.93;3.10;;;;;;;21.66;53.67;99023.25;4956189;28;20399;-50
2022/06/18 03:36:18;;;;;;;6.05;3.10;;;;;;;21.75;53.59;99027.00;4955884;28;20027;-50
2022/06/18 03:38:45;;;;;;;12.82;6.35;;;;;;;21.77;53.54;99024.84;4954588;29;20094;-49
2022/06/18 03:41:13;;;;;;;8.18;5.10;;;;;;;21.71;53.74;99023.25;4954432;29;20031;-50
2022/06/18 03:43:39;;;;;;;14.00;9.57;;;;;;;21.78;53.60;99018.47;4954442;29;20027;-50
2022/06/18 03:46:09;;;;;;;32.75;22.67;;;;;;;21.79;53.85;99020.06;4955770;28;20078;-49
2022/06/18 03:48:41;;;;;;;17.45;11.38;;;;;;;21.77;53.54;99014.16;4954361;29;20027;-50
2022/06/18 03:51:06;;;;;;;7.75;4.88;;;;;;;21.78;53.41;99015.78;4955667;28;20523;-49
2022/06/18 03:53:32;;;;;;;12.70;6.47;;;;;;;21.65;53.70;99010.94;4954304;29;20027;-49
2022/06/18 03:55:58;;;;;;;17.27;12.02;;;;;;;21.56;54.12;99008.00;4954226;29;20580;-49
2022/06/18 03:58:23;;;;;;;111.88;47.17;;;;;;;21.58;53.87;99015.75;4955382;29;20071;-50
2022/06/18 04:00:53;;;;;;;159.82;59.75;;;;;;;21.53;53.92;99008.53;4954040;29;20126;-49
2022/06/18 04:03:21;;;;;;;73.22;22.10;;;;;;;21.41;54.23;98999.94;4955442;28;20023;-50
2022/06/18 04:05:47;;;;;;;29.90;13.07;;;;;;;21.34;54.26;99000.19;4955297;29;20074;-49
2022/06/18 04:08:15;;;;;;;14.38;6.55;;;;;;;21.30;54.16;98993.78;4954942;28;20023;-49
2022/06/18 04:10:41;;;;;;;49.60;26.25;;;;;;;21.35;54.09;99007.16;4953909;29;20059;-49
2022/06/18 04:13:07;;;;;;;15.68;7.10;;;;;;;21.56;53.43;99000.00;4953947;29;20488;-49
2022/06/18 04:15:33;;;;;;;7.85;5.05;;;;;;;21.70;52.93;98997.63;4953845;29;20090;-49
2022/06/18 04:17:59;;;;;;;9.82;4.50;;;;;;;21.74;53.05;99004.03;4953859;29;20027;-49
2022/06/18 04:20:31;;;;;;;11.25;6.70;;;;;;;21.74;52.99;98999.47;4954765;28;20050;-49
2022/06/18 04:22:57;;;;;;;8.80;3.42;;;;;;;21.92;52.64;99005.38;4955110;28;20035;-50
2022/06/18 04:25:23;;;;;;;6.57;3.60;;;;;;;22.12;51.94;99000.03;4953684;29;20453;-50
2022/06/18 04:27:51;;;;;;;6.65;3.63;;;;;;;22.23;51.33;98995.47;4953653;29;20039;-49
2022/06/18 04:30:18;;;;;;;5.82;3.22;;;;;;;22.38;50.63;99002.72;4953555;29;20086;-49
2022/06/18 04:32:44;;;;;;;9.25;3.10;;;;;;;22.55;50.57;98997.06;4954876;28;20027;-49
2022/06/18 04:35:13;;;;;;;4.65;2.80;;;;;;;22.65;49.82;98991.66;4954833;28;20066;-49
2022/06/18 04:37:41;;;;;;;3.65;2.70;;;;;;;22.68;49.79;98995.69;4954782;28;20081;-50
2022/06/18 04:40:08;;;;;;;3.88;3.05;;;;;;;22.70;49.85;98993.53;4954746;28;20026;-49
2022/06/18 04:42:33;;;;;;;4.47;3.13;;;;;;;22.78;49.63;98997.50;4954611;28;20023;-49
2022/06/18 04:44:59;;;;;;;3.72;3.13;;;;;;;22.92;49.22;99006.59;4953331;29;20097;-50
2022/06/18 04:47:25;;;;;;;4.32;3.35;;;;;;;23.30;48.73;98999.75;4954578;28;20031;-49
2022/06/18 04:49:51;;;;;;;6.15;2.83;;;;;;;23.95;47.17;99004.16;4954543;28;20027;-50
2022/06/18 04:52:17;;;;;;;4.63;2.80;;;;;;;24.60;45.66;98998.47;4954476;29;20073;-50
2022/06/18 04:54:43;;;;;;;5.47;2.70;;;;;;;25.48;43.96;98998.22;4954508;28;20098;-50
2022/06/18 04:57:09;;;;;;;7.95;3.20;;;;;;;26.03;42.47;98998.44;4953111;29;20027;-49
2022/06/18 04:59:35;;;;;;;8.30;2.75;;;;;;;26.28;41.80;99004.50;4953045;29;20562;-50
2022/06/18 05:02:05;;;;;;;4.82;2.40;;;;;;;26.70;40.77;98998.09;4954310;28;20559;-50
2022/06/18 05:04:31;;;;;;;7.95;3.80;;;;;;;26.85;40.16;99002.38;4954393;28;20386;-50
2022/06/18 05:06:57;;;;;;;5.20;2.97;;;;;;;27.09;39.55;98995.97;4952993;29;20138;-50
2022/06/18 05:09:23;;;;;;;4.45;2.58;;;;;;;27.13;39.70;98998.84;4954234;29;20497;-49
2022/06/18 05:11:49;;;;;;;5.07;2.60;;;;;;;27.61;38.54;98993.75;4954211;28;20031;-50
2022/06/18 05:14:15;;;;;;;5.90;2.22;;;;;;;28.06;37.63;98995.66;4954188;28;20031;-50
2022/06/18 05:16:42;;;;;;;4.53;2.20;;;;;;;28.58;36.75;98987.06;4953026;29;20034;-50
2022/06/18 05:19:33;;;;;;;7.28;2.38;;;;;;;28.52;36.53;98980.22;4952184;28;20027;-49
2022/06/18 05:21:59;;;;;;;7.82;2.50;;;;;;;28.55;36.27;98980.34;4952529;29;20043;-49
2022/06/18 05:24:25;;;;;;;8.55;2.65;;;;;;;28.84;36.46;98979.81;4954021;28;20050;-50
2022/06/18 05:26:53;;;;;;;6.20;2.38;;;;;;;29.63;34.31;98982.63;4953990;28;20074;-50
2022/06/18 05:29:19;;;;;;;4.00;2.40;;;;;;;30.11;33.36;98983.53;4952707;29;20055;-48
2022/06/18 05:31:45;;;;;;;3.85;2.30;;;;;;;30.41;32.70;98985.19;4953945;28;20035;-47
2022/06/18 05:34:11;;;;;;;7.15;2.42;;;;;;;30.95;31.93;98983.81;4952631;29;20027;-48
2022/06/18 05:36:37;;;;;;;4.82;2.60;;;;;;;31.27;31.42;98990.47;4953822;28;20031;-47
2022/06/18 05:39:05;;;;;;;6.40;2.10;;;;;;;31.90;30.71;98976.84;4952540;29;20500;-50
2022/06/18 05:41:31;;;;;;;7.28;2.30;;;;;;;31.46;30.87;98971.03;4952400;29;20034;-50
2022/06/18 05:43:57;;;;;;;9.55;3.13;;;;;;;31.22;31.84;98975.19;4953856;28;20027;-50
2022/06/18 05:46:23;;;;;;;8.82;2.40;;;;;;;31.53;31.36;98974.03;4953728;28;20041;-50
2022/06/18 05:48:49;;;;;;;6.82;2.40;;;;;;;31.88;30.97;98973.69;4953745;28;20180;-50
2022/06/18 05:51:15;;;;;;;3.47;2.05;;;;;;;32.13;29.98;98968.31;4953751;28;20374;-50
2022/06/18 05:53:41;;;;;;;7.05;2.20;;;;;;;32.04;30.49;98979.28;4953758;29;20077;-50
2022/06/18 05:56:09;;;;;;;5.57;2.53;;;;;;;32.30;30.36;98972.75;4953692;28;20592;-50
2022/06/18 05:58:35;;;;;;;5.72;2.20;;;;;;;32.68;29.25;98983.34;4953650;28;20054;-50
2022/06/18 06:01:00;;;;;;;4.28;2.60;;;;;;;33.46;28.64;98975.16;4953583;28;20054;-50
2022/06/18 06:03:26;;;;;;;3.47;2.17;;;;;;;34.37;27.12;98986.16;4953617;29;20022;-50
2022/06/18 06:05:52;;;;;;;4.25;2.22;;;;;;;34.60;26.46;98980.84;4953576;29;20032;-50
2022/06/18 06:08:17;;;;;;;4.57;2.20;;;;;;;34.70;26.70;98990.47;4952272;29;20027;-50
2022/06/18 06:13:29;;;;;;;5.63;2.63;;;;;;;35.38;25.71;98991.19;4953607;29;20030;-50
2022/06/18 06:15:56;;;;;;;4.03;2.42;;;;;;;35.90;25.40;99003.53;4953520;28;20062;-49
2022/06/18 06:18:23;;;;;;;9.50;2.70;;;;;;;37.10;23.98;98985.09;4952134;29;20424;-50
2022/06/18 06:20:52;;;;;;;2.83;2.10;;;;;;;37.80;22.74;98982.84;4951799;29;20134;-50
2022/06/18 06:23:19;;;;;;;4.75;1.90;;;;;;;38.39;22.50;98983.78;4952117;29;20031;-50
2022/06/18 06:25:46;;;;;;;5.63;2.25;;;;;;;38.58;21.83;98980.03;4953420;28;20027;-51
2022/06/18 06:28:16;;;;;;;6.13;2.25;;;;;;;39.07;21.45;98984.25;4968224;28;20023;-48
2022/06/18 06:30:41;;;;;;;5.35;1.83;;;;;;;39.35;21.20;98985.53;4954044;28;20378;-48
2022/06/18 06:33:07;;;;;;;6.40;2.22;;;;;;;39.69;20.97;98990.78;4957089;28;20031;-48
2022/06/18 06:35:33;;;;;;;8.68;2.00;;;;;;;40.04;20.31;98995.56;4955668;29;20580;-48
2022/06/18 06:37:59;;;;;;;3.30;2.10;;;;;;;39.80;20.48;98997.06;4956979;28;20027;-48
2022/06/18 06:40:25;;;;;;;7.13;2.10;;;;;;;39.98;20.19;98988.09;4939589;29;20114;-48
2022/06/18 06:42:53;;;;;;;4.60;1.90;;;;;;;40.41;19.73;98991.66;4956907;28;20030;-48
2022/06/18 06:45:22;;;;;;;9.30;2.30;;;;;;;40.58;19.89;98983.78;4956780;28;20041;-49
2022/06/18 06:47:48;;;;;;;4.90;2.05;;;;;;;40.87;19.24;98988.06;4955487;29;20059;-48
2022/06/18 06:50:16;;;;;;;4.15;2.15;;;;;;;41.26;19.07;98986.38;4956733;28;20035;-50
2022/06/18 06:52:43;;;;;;;4.45;2.10;;;;;;;41.91;18.49;98982.06;4955401;29;20074;-49
2022/06/18 06:58:05;;;;;;;4.25;2.10;;;;;;;42.68;17.59;98972.00;4956952;29;20114;-50
2022/06/18 07:00:34;;;;;;;5.60;1.60;;;;;;;43.33;16.60;98966.53;4955216;29;20043;-49
2022/06/18 07:03:00;;;;;;;6.53;2.00;;;;;;;43.96;16.15;98970.78;4956825;28;20108;-51
2022/06/18 07:05:25;;;;;;;3.45;1.65;;;;;;;44.59;15.57;98968.13;4956446;28;20113;-52
2022/06/18 07:07:51;;;;;;;3.45;1.85;;;;;;;44.96;14.80;98971.03;4955187;29;20409;-53
2022/06/18 07:10:17;;;;;;;5.75;2.00;;;;;;;45.45;14.69;98962.88;4956437;28;20100;-53
2022/06/18 07:12:43;;;;;;;7.05;2.20;;;;;;;45.70;14.94;98967.88;4955060;29;20023;-53
2022/06/18 07:15:09;;;;;;;3.70;2.25;;;;;;;45.63;15.63;98965.22;4955003;29;20035;-54
2022/06/18 07:17:35;;;;;;;5.75;2.30;;;;;;;45.36;15.81;98965.44;4954975;29;20023;-52
2022/06/18 07:20:01;;;;;;;10.07;2.40;;;;;;;45.20;16.47;98966.94;4955938;28;20034;-53
2022/06/18 07:22:28;;;;;;;4.45;2.28;;;;;;;44.96;16.65;98959.94;4954883;29;20035;-53
2022/06/18 07:24:54;;;;;;;8.05;2.30;;;;;;;44.53;17.19;98955.97;4956193;28;20027;-53
2022/06/18 07:27:20;;;;;;;6.32;2.60;;;;;;;44.47;17.34;98954.91;4954736;29;20023;-51
2022/06/18 07:29:45;;;;;;;4.57;2.13;;;;;;;44.54;17.16;98962.31;4956034;29;20094;-52
2022/06/18 07:32:14;;;;;;;8.00;1.90;;;;;;;44.64;15.90;98955.78;4956032;28;20023;-51
2022/06/18 07:34:40;;;;;;;6.85;2.53;;;;;;;44.62;16.00;98950.69;4954693;29;20114;-52
2022/06/18 07:37:05;;;;;;;4.95;2.17;;;;;;;44.55;15.79;98953.56;4954531;29;20592;-50
2022/06/18 07:39:31;;;;;;;4.85;2.10;;;;;;;44.28;15.61;98954.44;4955887;29;20094;-50
2022/06/18 07:41:57;;;;;;;4.07;2.00;;;;;;;44.35;15.46;98955.50;4955177;28;20062;-51
2022/06/18 07:44:24;;;;;;;7.03;2.08;;;;;;;44.70;15.55;98947.78;4954557;29;20105;-52
2022/06/18 07:47:12;;;;;;;4.82;2.22;;;;;;;45.09;15.43;98935.91;4955793;28;20019;-50
2022/06/18 07:49:37;;;;;;;6.72;2.38;;;;;;;45.36;14.73;98934.94;4955353;28;20469;-51
2022/06/18 07:52:03;;;;;;;3.28;1.77;;;;;;;45.81;14.76;98926.78;4954330;29;20063;-53
2022/06/18 07:54:29;;;;;;;6.85;2.17;;;;;;;46.30;13.99;98930.72;4954280;29;20066;-51
2022/06/18 07:56:54;;;;;;;2.95;1.80;;;;;;;46.90;14.38;98938.63;4955821;29;20031;-51
2022/06/18 07:59:20;;;;;;;6.00;2.10;;;;;;;47.40;13.86;98937.91;4954220;29;20027;-52
2022/06/18 08:01:46;;;;;;;5.35;2.33;;;;;;;47.37;13.57;98936.03;4954169;29;20039;-53
2022/06/18 08:04:12;;;;;;;4.10;2.03;;;;;;;47.65;13.26;98928.00;4955512;28;20035;-52
2022/06/18 08:06:38;;;;;;;5.18;2.00;;;;;;;47.92;13.44;98921.97;4970179;28;20038;-52
2022/06/18 08:09:04;;;;;;;4.57;2.08;;;;;;;48.00;13.44;98920.50;4954032;29;20062;-53
2022/06/18 08:11:30;;;;;;;2.92;2.08;;;;;;;48.34;12.97;98916.19;4954026;29;20025;-53
2022/06/18 08:14:02;;;;;;;5.60;2.00;;;;;;;48.91;12.48;98904.94;4953952;29;20042;-53
2022/06/18 08:16:28;;;;;;;9.35;2.33;;;;;;;49.49;11.98;98905.53;4955203;28;20031;-54
2022/06/18 08:18:54;;;;;;;4.10;1.88;;;;;;;49.31;11.63;98898.63;4953815;29;20038;-53
2022/06/18 08:21:26;;;;;;;4.13;1.80;;;;;;;49.29;12.06;98889.94;4953411;29;20058;-53
2022/06/18 08:23:56;;;;;;;5.65;1.80;;;;;;;49.67;11.93;98891.59;4953815;29;20054;-54
2022/06/18 08:26:24;;;;;;;2.80;1.80;;;;;;;50.11;11.82;98885.00;4937764;29;20094;-54
2022/06/18 08:28:51;;;;;;;5.53;2.40;;;;;;;50.55;11.35;98881.84;4954937;28;20015;-54
2022/06/18 08:31:17;;;;;;;2.90;2.03;;;;;;;50.61;11.00;98882.00;4954839;28;20512;-52
2022/06/18 08:33:43;;;;;;;2.25;1.67;;;;;;;49.76;11.85;98876.91;4953582;29;20023;-53
2022/06/18 08:36:14;;;;;;;3.63;1.85;;;;;;;49.52;11.88;98873.91;4954702;29;20034;-52
2022/06/18 08:39:18;;;;;;;2.55;1.75;;;;;;;49.93;11.76;98866.25;4938096;29;20038;-54
2022/06/18 08:41:58;;;;;;;4.78;1.60;;;;;;;50.15;11.77;98863.28;4954597;29;20504;-52
2022/06/18 08:44:55;;;;;;;6.55;2.35;;;;;;;50.24;11.62;98865.31;4954620;29;20028;-53
2022/06/18 08:48:10;;;;;;;7.05;2.03;;;;;;;50.38;11.58;98867.44;4954674;28;20023;-52
2022/06/18 08:50:57;;;;;;;5.43;2.10;;;;;;;50.27;11.63;98861.56;4917081;29;20035;-54
2022/06/18 08:53:57;;;;;;;6.10;2.05;;;;;;;50.13;11.94;98855.38;4933197;29;20086;-53
2022/06/18 08:56:32;;;;;;;5.63;2.28;;;;;;;50.20;11.70;98862.66;4917220;29;20074;-54
2022/06/18 08:59:16;;;;;;;4.07;1.90;;;;;;;50.18;11.88;98865.16;4933179;29;20039;-54
2022/06/18 09:01:55;;;;;;;3.30;1.67;;;;;;;50.31;11.80;98857.38;4932969;29;20036;-52
2022/06/18 09:04:42;;;;;;;6.40;2.15;;;;;;;50.55;11.79;98859.50;4917154;29;20032;-52
2022/06/18 09:07:49;;;;;;;3.45;1.80;;;;;;;49.99;11.89;98856.00;4932934;29;20413;-53
2022/06/18 09:10:39;;;;;;;8.48;2.10;;;;;;;50.01;11.94;98855.50;4932932;29;20024;-54
2022/06/18 09:13:13;;;;;;;2.58;1.92;;;;;;;50.50;11.59;98852.53;4916900;29;20035;-53
2022/06/18 09:15:45;;;;;;;6.20;2.30;;;;;;;50.69;11.31;98847.69;4916953;29;20414;-54
2022/06/18 09:18:38;;;;;;;3.28;1.98;;;;;;;51.29;10.44;98843.22;4932905;29;20094;-53
2022/06/18 09:21:55;;;;;;;4.70;1.70;;;;;;;51.96;10.44;98845.88;4932223;29;20059;-53
2022/06/18 09:24:34;;;;;;;17.15;2.50;;;;;;;52.34;10.07;98833.09;4932770;29;20050;-55
2022/06/18 09:27:06;;;;;;;4.40;1.70;;;;;;;52.69;9.76;98838.03;4932787;29;20050;-52
2022/06/18 09:29:59;;;;;;;4.88;2.00;;;;;;;52.98;9.42;98830.81;4954019;28;20035;-52
2022/06/18 09:32:32;;;;;;;6.93;1.95;;;;;;;52.73;9.46;98830.19;4954020;28;20066;-53
2022/06/18 09:35:04;;;;;;;6.32;2.03;;;;;;;52.77;9.70;98825.16;4952642;29;20035;-53
2022/06/18 09:38:09;;;;;;;6.57;2.10;;;;;;;52.21;9.93;98829.84;4953871;28;20417;-54
2022/06/18 09:40:48;;;;;;;2.78;1.98;;;;;;;50.93;10.50;98827.41;4949983;29;20031;-54
2022/06/18 09:43:17;;;;;;;5.45;2.67;;;;;;;49.77;10.90;98817.84;4953919;28;20059;-53
2022/06/18 09:45:49;;;;;;;10.02;2.50;;;;;;;48.82;11.82;98818.50;4952473;29;20125;-53
2022/06/18 09:48:15;;;;;;;5.28;2.20;;;;;;;48.69;11.84;98815.81;4952528;29;20055;-52
2022/06/18 09:50:46;;;;;;;9.80;2.33;;;;;;;48.65;11.97;98817.22;4952432;29;20405;-54
2022/06/18 09:53:53;;;;;;;6.65;2.30;;;;;;;48.53;11.52;98816.03;4953634;28;20023;-53
2022/06/18 09:56:28;;;;;;;7.45;2.63;;;;;;;48.33;11.70;98813.59;4953641;29;20031;-52
2022/06/18 09:59:05;;;;;;;6.43;2.13;;;;;;;48.23;11.96;98807.16;4953799;28;20497;-51
2022/06/18 10:01:41;;;;;;;9.68;2.20;;;;;;;47.65;12.25;98808.41;4953595;28;20182;-54
2022/06/18 10:06:57;;;;;;;10.40;3.10;;;;;;;46.52;11.97;98803.22;4957586;29;20049;-53
2022/06/18 10:09:48;;;;;;;13.20;7.65;;;;;;;46.04;12.35;98798.19;4956229;29;20516;-54
2022/06/18 10:12:21;;;;;;;11.35;4.00;;;;;;;45.65;12.54;98793.69;4956131;29;20031;-53
2022/06/18 10:14:51;;;;;;;10.63;4.63;;;;;;;45.64;12.71;98783.75;4956412;29;20038;-54
2022/06/18 10:17:57;;;;;;;7.57;2.80;;;;;;;45.68;12.65;98787.25;4957323;28;20527;-53
2022/06/18 10:20:32;;;;;;;10.48;2.58;;;;;;;45.37;12.70;98784.84;4956597;29;20130;-53
2022/06/18 10:23:12;;;;;;;8.50;2.63;;;;;;;45.00;13.29;98781.38;4957241;29;20398;-54
2022/06/18 10:26:03;;;;;;;11.95;5.97;;;;;;;45.10;12.85;98770.44;4955954;29;20039;-53
2022/06/18 10:28:34;;;;;;;6.43;2.40;;;;;;;45.49;13.37;98763.19;4957203;28;20030;-54
2022/06/18 10:31:24;;;;;;;16.92;3.63;;;;;;;46.28;12.58;98764.59;4955766;29;20091;-54
2022/06/18 10:34:03;;;;;;;5.05;2.63;;;;;;;46.77;12.30;98763.59;4957120;28;20517;-52
2022/06/18 10:36:55;;;;;;;10.05;3.78;;;;;;;46.01;12.48;98760.19;4957031;28;20023;-54
2022/06/18 10:39:31;;;;;;;18.23;3.60;;;;;;;44.63;13.26;98750.13;4955718;29;20409;-53
2022/06/18 10:42:34;;;;;;;15.23;4.25;;;;;;;43.95;14.24;98756.25;4956883;28;20027;-52
2022/06/18 10:45:20;;;;;;;19.13;5.47;;;;;;;44.37;14.20;98759.38;4956893;29;20027;-51
2022/06/18 10:47:49;;;;;;;11.25;5.47;;;;;;;44.19;14.27;98755.00;4956912;28;20748;-54
2022/06/18 10:50:18;;;;;;;17.20;13.43;;;;;;;44.46;14.36;98740.97;4955478;29;20579;-54
2022/06/18 10:52:45;;;;;;;10.18;5.05;;;;;;;44.82;14.20;98739.44;4955467;29;20112;-51
2022/06/18 10:55:17;;;;;;;8.18;3.42;;;;;;;45.07;13.57;98738.84;4956659;28;20035;-51
2022/06/18 10:57:44;;;;;;;9.38;3.13;;;;;;;45.25;13.42;98727.31;4956670;29;20568;-52
2022/06/18 11:00:25;;;;;;;9.85;3.17;;;;;;;45.00;13.10;98736.28;4955258;29;20086;-51
2022/06/18 11:02:57;;;;;;;20.58;10.80;;;;;;;44.79;14.05;98723.66;4956560;28;20516;-51
2022/06/18 11:05:29;;;;;;;77.72;68.75;;;;;;;44.20;14.05;98717.81;4955172;29;20027;-53
2022/06/18 11:07:58;;;;;;;1546.85;957.60;;;;;;;43.65;14.93;98722.03;4956458;28;20020;-53
2022/06/18 11:10:58;;;;;;;158.07;132.55;;;;;;;43.04;14.91;98720.28;4956381;28;20059;-50
2022/06/18 11:13:39;;;;;;;41.97;23.33;;;;;;;42.64;14.73;98723.63;4955916;29;20043;-50
2022/06/18 11:16:18;;;;;;;49.38;31.77;;;;;;;42.67;15.22;98716.50;4955876;28;20054;-53
2022/06/18 11:19:03;;;;;;;65.22;49.97;;;;;;;42.52;15.47;98707.63;4954923;29;20436;-50
2022/06/18 11:21:36;;;;;;;17.73;13.68;;;;;;;42.24;14.85;98717.03;4955847;28;20058;-51
2022/06/18 11:24:17;;;;;;;80.50;54.60;;;;;;;42.17;15.66;98700.59;4956283;28;20027;-50
2022/06/18 11:26:49;;;;;;;30.92;21.20;;;;;;;42.53;15.04;98700.16;4954907;29;20035;-49
2022/06/18 11:29:32;;;;;;;71.65;54.42;;;;;;;42.76;15.33;98693.88;4956139;29;20081;-53
2022/06/18 11:32:01;;;;;;;37.83;27.05;;;;;;;43.21;15.21;98696.34;4956080;28;20405;-53
2022/06/18 11:34:34;;;;;;;47.35;35.53;;;;;;;43.97;15.03;98684.69;4955962;28;20516;-51
2022/06/18 11:37:10;;;;;;;18.08;9.07;;;;;;;44.64;13.99;98674.16;4954667;29;20089;-51
2022/06/18 11:39:39;;;;;;;14.20;6.63;;;;;;;44.56;13.93;98681.09;4954671;29;20051;-52
2022/06/18 11:42:10;;;;;;;16.42;8.75;;;;;;;44.45;14.67;98681.31;4954457;29;20511;-51
2022/06/18 11:45:03;;;;;;;32.15;15.35;;;;;;;44.37;13.94;98666.06;4954555;29;20413;-50
2022/06/18 11:47:36;;;;;;;15.35;6.82;;;;;;;44.64;14.39;98660.31;4955955;28;20070;-50
2022/06/18 11:50:18;;;;;;;11.57;4.18;;;;;;;45.01;13.38;98661.03;4955663;28;20039;-53
2022/06/18 11:52:57;;;;;;;9.02;6.07;;;;;;;44.83;13.91;98658.66;4955772;28;20027;-53
2022/06/18 11:55:38;;;;;;;10.25;4.38;;;;;;;44.86;13.86;98644.00;4955677;28;20047;-53
2022/06/18 11:58:29;;;;;;;23.48;7.28;;;;;;;45.03;13.51;98643.97;4955608;28;20023;-52
2022/06/18 12:01:03;;;;;;;11.95;4.22;;;;;;;44.58;13.99;98641.91;4955479;28;20030;-53
2022/06/18 12:03:39;;;;;;;11.38;3.85;;;;;;;43.85;14.04;98648.19;4955548;28;20497;-53
2022/06/18 12:06:21;;;;;;;12.02;4.30;;;;;;;43.35;14.98;98635.34;4955323;28;20023;-53